logo
Search for airport 
image banner adimage banner adimage banner ad
image banner ad

LOAV - Voslau

Located in Voslau, Austria

ICAO - LOAV, IATA -

Data provided by Airmate  

General information

Coordinates: N47°57'52" E16°15'34"
Elevation is 767 feet MSL.
 
View others Airports in Lower Austria

Operational data

Special qualification required
Current time UTC:
Current local time:
Weather
METAR: LOAV 151000Z 36012KT 9999 SCT040 22/12
TAF: TAF LOAV 150815Z 1509/1518 29010KT 9999 FEW060 BECMG 1512/1513 FEW050 FEW060CB PROB30 TEMPO 1513/1518 VRB15G30KT TSRA
View NOTAMs / SUP AIP / TFR affecting this airport [VIEW]
Communications frequencies: [VIEW]

Runways:

RWY identifierQFULength (ft)Width (ft)SurfaceLDA (ft)
08131298GRASS
26131298GRASS
13L213382UNK
31R213382UNK
13R311775UNK
31L311775UNK

Airport contact information

Address: Voslau Austria

Handlers

Motorflugunion Wien

Motorflugunion Wien

Flugplatz Vöslau Betriebsgmbh

Flugplatz Vöslau Betriebsgmbh

Other aviation service providers

Flight schools

Ing. Watschinger Ges.M.B.H.

Ing. Watschinger Ges.M.B.H.
fly@watschinger.at+43225277216

Mfu Flugbetrieb Gmbh

Mfu Flugbetrieb Gmbh
office@3fly.at+436643580806

Starflight Gmbh

Starflight Gmbh

Aviation club (not for profit)

Fliegergruppe Wien Im Österr. Aero-Club

Fliegergruppe Wien Im Österr. Aero-Club

Satellite view of LOAV